Millenium Maverick — WCD2866 — position and weather

sailwx.info

Track history (hours):
 
Tides and Currents Weather Stations Pressure Air Temp Water Temp Dewpoint Dewpoint Depression Visibility Wind Speed Wind Dir Waves Ship Positions

Millenium Maverick

Last reported at 2018-Feb-20 21:31 UTC. Time now 2018-Feb-20 21:38 UTC.
Position N 33°43' W 118°15'.

Length 29 m; draft 5.5 m.

Type: Towing. MMSI: 366998840.

Date/timePositionNaut miles runAvg speedWind from/ knotsBaromVisibWave heightAir tempDewpointWater temp
2018-Feb-20 21:31N 33°43' W 118°15'1 2.1
2018-Feb-20 21:00N 33°44' W 118°16'0 0.1
2018-Feb-20 20:30N 33°44' W 118°16'0 0.0
2018-Feb-20 20:00N 33°44' W 118°16'0 0.0
2018-Feb-20 19:30N 33°44' W 118°16'0 0.0
2018-Feb-20 19:00N 33°44' W 118°16'0 0.0
2018-Feb-20 18:31N 33°44' W 118°16'0 0.0
2018-Feb-20 18:01N 33°44' W 118°16'0 0.6
2018-Feb-20 17:30N 33°44' W 118°16'2 3.7
2018-Feb-20 17:01N 33°45' W 118°16'0 0.2
2018-Feb-20 16:30N 33°45' W 118°16'0 0.9
2018-Feb-20 16:00N 33°46' W 118°15'2 3.7
2018-Feb-20 15:30N 33°46' W 118°13'2 4.0
2018-Feb-20 15:00N 33°45' W 118°12'1 1.0
2018-Feb-20 14:30N 33°45' W 118°12'0 0.0
2018-Feb-20 13:57N 33°45' W 118°12'0 0.0
2018-Feb-20 13:19N 33°45' W 118°12'1 4.6
2018-Feb-20 13:00N 33°45' W 118°14'0 0.4
2018-Feb-20 12:30N 33°45' W 118°14'1 3.0
2018-Feb-20 12:00N 33°44' W 118°14'2 3.6
2018-Feb-20 11:31N 33°44' W 118°16'1 2.2
2018-Feb-20 11:01N 33°45' W 118°16'0 0.0
2018-Feb-20 10:31N 33°45' W 118°16'0 0.0
2018-Feb-20 10:00N 33°45' W 118°16'0 0.0
2018-Feb-20 09:30N 33°45' W 118°16'0 0.0
2018-Feb-20 08:59N 33°45' W 118°16'1 2.8
2018-Feb-20 08:30N 33°43' W 118°16'1 1.2
2018-Feb-20 08:00N 33°44' W 118°16'0 0.0
2018-Feb-20 07:31N 33°44' W 118°16'0 0.0
2018-Feb-20 06:59N 33°44' W 118°16'0 0.0
2018-Feb-20 06:30N 33°44' W 118°16'0 0.0
2018-Feb-20 06:00N 33°44' W 118°16'2 3.1
2018-Feb-20 05:31N 33°43' W 118°14'3 5.8
2018-Feb-20 05:00N 33°46' W 118°13'0 1.0
2018-Feb-20 04:30N 33°46' W 118°13'0 0.1
2018-Feb-20 04:00N 33°46' W 118°13'0 0.2
2018-Feb-20 03:29N 33°46' W 118°13'1 2.2
2018-Feb-20 02:58N 33°45' W 118°13'1 1.1
2018-Feb-20 02:30N 33°46' W 118°13'1 1.5
2018-Feb-20 02:00N 33°45' W 118°13'0 0.0
2018-Feb-20 01:30N 33°45' W 118°13'0 0.5
2018-Feb-20 01:00N 33°45' W 118°13'1 2.8
2018-Feb-20 00:30N 33°44' W 118°11'1 1.2
2018-Feb-20 00:01N 33°44' W 118°11'1 1.9
2018-Feb-19 23:31N 33°44' W 118°11'1 1.8
2018-Feb-19 23:01N 33°44' W 118°12'1 1.2
2018-Feb-19 22:30N 33°45' W 118°12'1 2.5
2018-Feb-19 22:00N 33°43' W 118°11'1 1.2
2018-Feb-19 21:31N 33°44' W 118°12'3 6.6
2018-Feb-19 21:00N 33°43' W 118°16'0 0.9
2018-Feb-19 20:31N 33°44' W 118°16'0 0.0
2018-Feb-19 20:00N 33°44' W 118°16'0 0.0
2018-Feb-19 19:30N 33°44' W 118°16'1 2.6
2018-Feb-19 19:00N 33°43' W 118°15'2 3.2
2018-Feb-19 18:30N 33°43' W 118°13'0 0.1
2018-Feb-19 18:01N 33°43' W 118°13'1 2.4
2018-Feb-19 17:31N 33°45' W 118°12'0 0.8
2018-Feb-19 17:00N 33°45' W 118°13'0 0.0
2018-Feb-19 16:30N 33°45' W 118°13'0 0.0
2018-Feb-19 16:01N 33°45' W 118°13'0 0.0
2018-Feb-19 15:31N 33°45' W 118°13'1 1.1
2018-Feb-19 15:01N 33°44' W 118°12'2 4.4
2018-Feb-19 14:29N 33°43' W 118°14'1 3.0
2018-Feb-19 14:00N 33°43' W 118°16'3 5.5
2018-Feb-19 13:30N 33°46' W 118°17'0 0.0
2018-Feb-19 13:00N 33°46' W 118°17'1 1.7
2018-Feb-19 12:30N 33°45' W 118°16'0 0.0
2018-Feb-19 12:00N 33°45' W 118°16'1 1.6
2018-Feb-19 11:30N 33°44' W 118°17'2 4.4
2018-Feb-19 11:00N 33°43' W 118°15'1 2.6
2018-Feb-19 10:30N 33°44' W 118°16'0 0.0
2018-Feb-19 10:00N 33°44' W 118°16'0 0.0
2018-Feb-19 09:31N 33°44' W 118°16'0 0.0
2018-Feb-19 09:00N 33°44' W 118°16'0 0.0
2018-Feb-19 08:30N 33°44' W 118°16'0 0.0
2018-Feb-19 08:00N 33°44' W 118°16'0 0.0
2018-Feb-19 07:30N 33°44' W 118°16'0 0.0
2018-Feb-19 07:01N 33°44' W 118°16'3 6.0
2018-Feb-19 06:26N 33°44' W 118°12'1 3.1
2018-Feb-19 06:00N 33°44' W 118°10'1 1.9
2018-Feb-19 05:30N 33°44' W 118°11'2 3.0
2018-Feb-19 04:59N 33°45' W 118°13'1 1.8
2018-Feb-19 04:30N 33°46' W 118°13'0 0.0
2018-Feb-19 03:59N 33°46' W 118°13'0 0.1
2018-Feb-19 03:30N 33°46' W 118°13'0 0.0
2018-Feb-19 03:00N 33°46' W 118°13'1 1.2
2018-Feb-19 02:27N 33°45' W 118°12'1 1.2
2018-Feb-19 02:00N 33°44' W 118°12'1 1.5
2018-Feb-19 01:31N 33°44' W 118°12'0 0.0
2018-Feb-19 01:00N 33°44' W 118°12'0 0.0
2018-Feb-19 00:31N 33°44' W 118°12'1 2.4
2018-Feb-19 00:00N 33°45' W 118°12'1 1.0
2018-Feb-18 23:31N 33°44' W 118°12'2 4.2
2018-Feb-18 23:01N 33°44' W 118°10'0 0.6
2018-Feb-18 22:30N 33°44' W 118°10'2 3.7
2018-Feb-18 22:01N 33°44' W 118°12'1 1.3
2018-Feb-18 21:30N 33°45' W 118°12'2 3.0
2018-Feb-18 21:00N 33°44' W 118°13'2 3.8
2018-Feb-18 20:30N 33°44' W 118°16'0 0.0
2018-Feb-18 20:01N 33°44' W 118°16'0 0.0
2018-Feb-18 19:29N 33°44' W 118°16'0 0.0
2018-Feb-18 19:00N 33°44' W 118°16'0 0.0
2018-Feb-18 18:31N 33°44' W 118°16'0 0.0
2018-Feb-18 18:01N 33°44' W 118°16'3 5.5
2018-Feb-18 17:30N 33°44' W 118°12'1 1.1
2018-Feb-18 17:01N 33°43' W 118°13'3 5.8
2018-Feb-18 16:31N 33°44' W 118°16'2 4.4
2018-Feb-18 16:00N 33°46' W 118°16'0 0.5
2018-Feb-18 15:30N 33°46' W 118°16'0 0.0
2018-Feb-18 15:01N 33°46' W 118°16'0 0.0
2018-Feb-18 14:30N 33°46' W 118°16'0 0.0
2018-Feb-18 14:01N 33°46' W 118°16'1 1.7
2018-Feb-18 13:31N 33°46' W 118°17'1 1.2
2018-Feb-18 13:01N 33°45' W 118°16'3 5.0
2018-Feb-18 12:30N 33°43' W 118°15'0 0.9
2018-Feb-18 12:00N 33°43' W 118°15'1 2.5
2018-Feb-18 11:31N 33°44' W 118°15'0 0.1
2018-Feb-18 11:00N 33°44' W 118°15'0 0.9
2018-Feb-18 10:30N 33°44' W 118°16'0 0.0
2018-Feb-18 09:59N 33°44' W 118°16'0 0.0
2018-Feb-18 09:29N 33°44' W 118°16'0 0.0
2018-Feb-18 08:59N 33°44' W 118°16'0 0.0
2018-Feb-18 08:31N 33°44' W 118°16'0 0.0
2018-Feb-18 07:59N 33°44' W 118°16'0 0.0
2018-Feb-18 07:30N 33°44' W 118°16'0 0.0
2018-Feb-18 07:01N 33°44' W 118°16'0 0.0
2018-Feb-18 06:30N 33°44' W 118°16'1 1.2
2018-Feb-18 06:00N 33°44' W 118°16'2 4.0
2018-Feb-18 05:31N 33°46' W 118°16'3 5.8
2018-Feb-18 05:00N 33°43' W 118°16'2 4.9
2018-Feb-18 04:30N 33°44' W 118°13'0 0.1
2018-Feb-18 03:37N 33°44' W 118°13'1 8.2
2018-Feb-18 03:30N 33°43' W 118°14'3 5.3
2018-Feb-18 03:00N 33°45' W 118°17'1 2.3
2018-Feb-18 02:30N 33°46' W 118°16'0 0.3
2018-Feb-18 02:01N 33°46' W 118°16'0 0.0
2018-Feb-18 01:31N 33°46' W 118°16'2 4.5
2018-Feb-18 01:01N 33°45' W 118°13'1 1.9
2018-Feb-18 00:30N 33°45' W 118°12'1 1.6
2018-Feb-18 00:00N 33°44' W 118°12'1 2.9
2018-Feb-17 23:31N 33°44' W 118°11'1 1.8
2018-Feb-17 23:01N 33°44' W 118°12'1 2.0
2018-Feb-17 22:31N 33°44' W 118°12'3 6.3
2018-Feb-17 22:01N 33°44' W 118°16'2 4.9
2018-Feb-17 21:30N 33°46' W 118°16'3 5.1
2018-Feb-17 21:00N 33°43' W 118°16'1 1.3
2018-Feb-17 20:30N 33°44' W 118°16'0 0.0
2018-Feb-17 20:00N 33°44' W 118°16'0 0.0
2018-Feb-17 19:31N 33°44' W 118°16'0 0.0
2018-Feb-17 19:01N 33°44' W 118°16'0 0.0
2018-Feb-17 18:30N 33°44' W 118°16'3 5.6
2018-Feb-17 18:00N 33°44' W 118°12'1 1.0
2018-Feb-17 17:30N 33°45' W 118°13'0 0.3
2018-Feb-17 17:00N 33°45' W 118°13'0 0.0
2018-Feb-17 16:30N 33°45' W 118°13'1 2.2
2018-Feb-17 16:01N 33°44' W 118°13'3 6.0
2018-Feb-17 15:30N 33°45' W 118°17'1 1.4
2018-Feb-17 15:00N 33°44' W 118°17'1 1.5
2018-Feb-17 14:30N 33°44' W 118°16'0 0.2
2018-Feb-17 14:00N 33°44' W 118°16'0 0.0
2018-Feb-17 13:30N 33°44' W 118°16'1 2.9
2018-Feb-17 13:00N 33°43' W 118°14'3 5.3
2018-Feb-17 12:30N 33°46' W 118°13'0 1.0
2018-Feb-17 12:00N 33°46' W 118°13'1 0.6
2018-Feb-17 10:49N 33°45' W 118°13'0 0.0
2018-Feb-17 10:25N 33°45' W 118°13'0 0.0
2018-Feb-17 09:59N 33°45' W 118°13'0 0.0
2018-Feb-17 09:14N 33°45' W 118°13'0 0.0
2018-Feb-17 08:59N 33°45' W 118°13'1 3.1
2018-Feb-17 08:31N 33°44' W 118°13'2 3.6
2018-Feb-17 07:58N 33°44' W 118°16'0 0.0
2018-Feb-17 07:30N 33°44' W 118°16'0 0.0
2018-Feb-17 06:59N 33°44' W 118°16'0 0.0
2018-Feb-17 06:29N 33°44' W 118°16'0 0.0
2018-Feb-17 05:59N 33°44' W 118°16'0 0.0
2018-Feb-17 05:30N 33°44' W 118°16'0 0.0
2018-Feb-17 05:00N 33°44' W 118°16'0 0.0
2018-Feb-17 04:30N 33°44' W 118°16'0 0.0
2018-Feb-17 04:00N 33°44' W 118°16'0 0.0
2018-Feb-17 03:31N 33°44' W 118°16'0 0.0
2018-Feb-17 03:00N 33°44' W 118°16'0 0.0
2018-Feb-17 02:30N 33°44' W 118°16'0 0.0
2018-Feb-17 02:00N 33°44' W 118°16'1 1.8
2018-Feb-17 01:30N 33°43' W 118°16'3 6.5
2018-Feb-17 01:01N 33°45' W 118°13'0 0.8
2018-Feb-17 00:30N 33°45' W 118°13'0 0.0
2018-Feb-17 00:01N 33°45' W 118°13'0 0.0
2018-Feb-16 23:31N 33°45' W 118°13'0 0.0
2018-Feb-16 23:01N 33°45' W 118°13'0 0.0
2018-Feb-16 22:31N 33°45' W 118°13'0 0.8
2018-Feb-16 21:59N 33°45' W 118°13'4 8.1
2018-Feb-16 21:30N 33°41' W 118°13'2 4.0
2018-Feb-16 21:01N 33°42' W 118°15'2 4.3
2018-Feb-16 20:30N 33°44' W 118°16'0 0.0
2018-Feb-16 20:01N 33°44' W 118°16'0 0.0
2018-Feb-16 19:30N 33°44' W 118°16'0 0.0
2018-Feb-16 19:00N 33°44' W 118°16'0 0.0
2018-Feb-16 18:30N 33°44' W 118°16'0 0.0
2018-Feb-16 18:01N 33°44' W 118°16'0 0.0
2018-Feb-16 17:30N 33°44' W 118°16'0 0.0
2018-Feb-16 17:00N 33°44' W 118°16'2 3.7
2018-Feb-16 16:31N 33°44' W 118°13'1 2.2
2018-Feb-16 16:01N 33°45' W 118°13'0 0.0
2018-Feb-16 15:30N 33°45' W 118°13'0 0.0
2018-Feb-16 15:00N 33°45' W 118°13'1 1.1
2018-Feb-16 14:30N 33°46' W 118°13'0 0.2
2018-Feb-16 14:01N 33°45' W 118°13'3 4.2
2018-Feb-16 13:23N 33°43' W 118°11'2 4.0
2018-Feb-16 13:01N 33°44' W 118°12'1 1.7
2018-Feb-16 12:31N 33°45' W 118°13'0 0.0
2018-Feb-16 12:01N 33°45' W 118°13'0 0.0
2018-Feb-16 11:30N 33°45' W 118°13'1 1.1
2018-Feb-16 11:00N 33°46' W 118°13'1 1.3
2018-Feb-16 10:30N 33°46' W 118°13'1 1.4
2018-Feb-16 09:59N 33°45' W 118°13'3 5.5
2018-Feb-16 09:30N 33°43' W 118°11'1 1.4
2018-Feb-16 08:59N 33°44' W 118°12'3 6.2
2018-Feb-16 08:30N 33°43' W 118°15'1 1.8
2018-Feb-16 07:58N 33°44' W 118°16'0 0.0
2018-Feb-16 07:29N 33°44' W 118°16'0 0.0
2018-Feb-16 06:59N 33°44' W 118°16'0 0.0
2018-Feb-16 06:30N 33°44' W 118°16'0 0.0
2018-Feb-16 05:59N 33°44' W 118°16'3 6.1
2018-Feb-16 05:30N 33°44' W 118°12'1 2.5
2018-Feb-16 05:00N 33°44' W 118°11'1 2.1
2018-Feb-16 04:30N 33°44' W 118°12'3 6.3
2018-Feb-16 04:00N 33°43' W 118°16'1 1.8
2018-Feb-16 03:31N 33°44' W 118°16'1 1.3
2018-Feb-16 03:00N 33°43' W 118°17'1 1.4
2018-Feb-16 02:30N 33°44' W 118°16'0 0.2
2018-Feb-16 02:00N 33°44' W 118°16'0 0.0
2018-Feb-16 01:30N 33°44' W 118°16'0 0.0
2018-Feb-16 01:00N 33°44' W 118°16'0 0.0
2018-Feb-16 00:31N 33°44' W 118°16'0 0.0
2018-Feb-16 00:01N 33°44' W 118°16'0 0.0
2018-Feb-15 23:30N 33°44' W 118°16'0 0.0
2018-Feb-15 22:59N 33°44' W 118°16'0 0.0
2018-Feb-15 22:30N 33°44' W 118°16'0 0.0
2018-Feb-15 22:01N 33°44' W 118°16'0 0.0
2018-Feb-15 21:31N 33°44' W 118°16'0 0.0
2018-Feb-15 21:01N 33°44' W 118°16'0 0.0
2018-Feb-15 20:31N 33°44' W 118°16'0 0.0
2018-Feb-15 20:00N 33°44' W 118°16'0 0.0
2018-Feb-15 19:30N 33°44' W 118°16'0 0.0
2018-Feb-15 19:00N 33°44' W 118°16'0 0.0
2018-Feb-15 18:31N 33°44' W 118°16'0 0.0
2018-Feb-15 17:58N 33°44' W 118°16'0 0.0
2018-Feb-15 17:30N 33°44' W 118°16'0 0.0
2018-Feb-15 17:00N 33°44' W 118°16'0 0.0
2018-Feb-15 16:27N 33°44' W 118°16'0 0.0
2018-Feb-15 16:01N 33°44' W 118°16'2 3.5
2018-Feb-15 15:31N 33°43' W 118°14'2 3.9
2018-Feb-15 15:00N 33°45' W 118°12'1 1.2
2018-Feb-15 14:30N 33°45' W 118°13'0 0.2
2018-Feb-15 13:59N 33°45' W 118°13'2 3.7
2018-Feb-15 13:23N 33°44' W 118°11'0 0.1
2018-Feb-15 13:01N 33°44' W 118°12'2 3.7
2018-Feb-15 12:30N 33°45' W 118°13'0 0.0
2018-Feb-15 12:00N 33°45' W 118°13'0 0.0
2018-Feb-15 11:30N 33°45' W 118°13'0 0.0
2018-Feb-15 11:00N 33°45' W 118°13'0 0.0
2018-Feb-15 10:30N 33°45' W 118°13'1 2.8
2018-Feb-15 10:00N 33°46' W 118°14'0 0.1
2018-Feb-15 09:30N 33°46' W 118°14'3 5.1
2018-Feb-15 08:59N 33°43' W 118°14'2 3.5
2018-Feb-15 08:30N 33°44' W 118°16'0 0.1
2018-Feb-15 08:00N 33°44' W 118°16'0 0.0
2018-Feb-15 07:29N 33°44' W 118°16'0 0.0
2018-Feb-15 06:59N 33°44' W 118°16'0 0.0
2018-Feb-15 06:30N 33°44' W 118°16'0 0.0
2018-Feb-15 06:00N 33°44' W 118°16'0 0.0
2018-Feb-15 05:29N 33°44' W 118°16'0 0.0
2018-Feb-15 05:00N 33°44' W 118°16'0 0.5
2018-Feb-15 04:29N 33°44' W 118°16'0 0.1
2018-Feb-15 04:00N 33°44' W 118°16'0 0.5
2018-Feb-15 03:30N 33°44' W 118°16'0 0.1
2018-Feb-15 03:00N 33°44' W 118°15'0 0.3
2018-Feb-15 02:30N 33°44' W 118°16'0 0.0
2018-Feb-15 02:00N 33°44' W 118°16'0 0.0
2018-Feb-15 01:30N 33°44' W 118°16'0 0.0
2018-Feb-15 01:00N 33°44' W 118°16'0 0.0
2018-Feb-15 00:30N 33°44' W 118°16'0 0.0
2018-Feb-15 00:00N 33°44' W 118°16'0 0.0
2018-Feb-14 23:30N 33°44' W 118°16'0 0.9
2018-Feb-14 23:00N 33°44' W 118°15'1 1.3
2018-Feb-14 22:30N 33°44' W 118°16'1 2.2
2018-Feb-14 21:59N 33°43' W 118°15'1 2.8
2018-Feb-14 21:30N 33°44' W 118°16'0 0.0
2018-Feb-14 20:59N 33°44' W 118°16'0 0.0
2018-Feb-14 20:30N 33°44' W 118°16'0 0.0
2018-Feb-14 20:00N 33°44' W 118°16'0 0.0
2018-Feb-14 19:30N 33°44' W 118°16'0 0.0
2018-Feb-14 18:59N 33°44' W 118°16'0 0.0
2018-Feb-14 18:30N 33°44' W 118°16'0 0.0
2018-Feb-14 17:57N 33°44' W 118°16'0 0.0
2018-Feb-14 17:30N 33°44' W 118°16'0 0.0
2018-Feb-14 17:00N 33°44' W 118°16'0 0.0
2018-Feb-14 16:30N 33°44' W 118°16'0 0.0
2018-Feb-14 16:00N 33°44' W 118°16'0 0.0
2018-Feb-14 15:30N 33°44' W 118°16'0 0.0
2018-Feb-14 14:59N 33°44' W 118°16'0 0.0
2018-Feb-14 14:30N 33°44' W 118°16'0 0.0
2018-Feb-14 14:00N 33°44' W 118°16'0 0.0
2018-Feb-14 13:30N 33°44' W 118°16'2 3.6
2018-Feb-14 12:58N 33°44' W 118°13'2 4.3
2018-Feb-14 12:30N 33°46' W 118°13'0 0.4
2018-Feb-14 12:00N 33°46' W 118°13'0 0.8
2018-Feb-14 11:30N 33°46' W 118°13'3 6.3
2018-Feb-14 11:00N 33°43' W 118°16'0 1.0
2018-Feb-14 10:31N 33°44' W 118°16'0 0.0
2018-Feb-14 09:59N 33°44' W 118°16'0 0.0
2018-Feb-14 09:30N 33°44' W 118°16'0 0.0
2018-Feb-14 08:59N 33°44' W 118°16'0 0.0
2018-Feb-14 08:28N 33°44' W 118°16'0 0.0
2018-Feb-14 08:00N 33°44' W 118°16'0 0.0
2018-Feb-14 07:30N 33°44' W 118°16'0 0.0
2018-Feb-14 06:56N 33°44' W 118°16'0 0.0
2018-Feb-14 06:30N 33°44' W 118°16'0 0.2
2018-Feb-14 06:00N 33°44' W 118°16'2 3.9
2018-Feb-14 05:27N 33°44' W 118°13'1 2.9
2018-Feb-14 05:00N 33°45' W 118°12'0 0.8
2018-Feb-14 04:30N 33°45' W 118°13'0 0.0
2018-Feb-14 04:00N 33°45' W 118°13'0 0.0
2018-Feb-14 03:30N 33°45' W 118°13'1 1.7
2018-Feb-14 03:00N 33°46' W 118°13'0 0.9
2018-Feb-14 02:30N 33°46' W 118°13'1 2.4
2018-Feb-14 01:59N 33°45' W 118°13'2 5.1
2018-Feb-14 01:30N 33°44' W 118°16'0 0.0
2018-Feb-14 01:00N 33°44' W 118°16'0 0.0
2018-Feb-14 00:30N 33°44' W 118°16'1 1.3
2018-Feb-14 00:00N 33°44' W 118°15'1 1.4
2018-Feb-13 23:30N 33°44' W 118°16'1 2.5
2018-Feb-13 23:00N 33°43' W 118°15'1 2.7
2018-Feb-13 22:30N 33°44' W 118°16'0 0.0
2018-Feb-13 22:00N 33°44' W 118°16'0 0.0
2018-Feb-13 21:30N 33°44' W 118°16'0 0.0
2018-Feb-13 21:00N 33°44' W 118°16'0 0.0
2018-Feb-13 20:30N 33°44' W 118°16'0 0.0
2018-Feb-13 20:00N 33°44' W 118°16'0 0.0
2018-Feb-13 19:30N 33°44' W 118°16'0 0.0
2018-Feb-13 19:00N 33°44' W 118°16'0 0.0
2018-Feb-13 18:30N 33°44' W 118°16'0 0.0
2018-Feb-13 18:00N 33°44' W 118°16'1 2.0
2018-Feb-13 17:30N 33°44' W 118°17'1 1.8
2018-Feb-13 17:00N 33°45' W 118°17'0 0.1
2018-Feb-13 16:29N 33°45' W 118°17'0 0.0
2018-Feb-13 16:00N 33°45' W 118°17'0 0.0
2018-Feb-13 15:30N 33°45' W 118°17'1 2.3
2018-Feb-13 15:00N 33°44' W 118°17'3 5.8
2018-Feb-13 14:30N 33°45' W 118°13'1 1.9
2018-Feb-13 14:00N 33°45' W 118°14'2 4.1
2018-Feb-13 13:31N 33°45' W 118°16'0 0.0
2018-Feb-13 13:00N 33°45' W 118°16'2 4.0
2018-Feb-13 12:30N 33°43' W 118°16'1 1.9
2018-Feb-13 12:00N 33°43' W 118°15'1 1.6
2018-Feb-13 11:30N 33°43' W 118°16'4 8.0
2018-Feb-13 11:00N 33°44' W 118°11'1 1.8
2018-Feb-13 10:30N 33°44' W 118°10'3 5.7
2018-Feb-13 10:00N 33°43' W 118°13'2 4.3
2018-Feb-13 09:30N 33°44' W 118°16'0 0.0
2018-Feb-13 09:00N 33°44' W 118°16'0 0.0
2018-Feb-13 08:30N 33°44' W 118°16'0 0.0
2018-Feb-13 08:00N 33°44' W 118°16'0 0.0
2018-Feb-13 07:30N 33°44' W 118°16'0 0.0
2018-Feb-13 07:00N 33°44' W 118°16'0 0.0
2018-Feb-13 06:31N 33°44' W 118°16'0 0.0
2018-Feb-13 06:00N 33°44' W 118°16'0 0.0
2018-Feb-13 05:30N 33°44' W 118°16'0 0.2
2018-Feb-13 05:00N 33°44' W 118°16'3 5.7
2018-Feb-13 04:30N 33°44' W 118°12'1 1.8
2018-Feb-13 04:00N 33°44' W 118°12'2 3.3
2018-Feb-13 03:29N 33°44' W 118°10'2 3.9
2018-Feb-13 03:00N 33°44' W 118°12'2 4.9
2018-Feb-13 02:30N 33°45' W 118°14'0 0.1
2018-Feb-13 02:00N 33°45' W 118°14'1 1.8
2018-Feb-13 01:30N 33°46' W 118°15'2 3.2
2018-Feb-13 01:00N 33°46' W 118°17'0 0.4
2018-Feb-13 00:30N 33°45' W 118°17'1 2.8
2018-Feb-13 00:00N 33°44' W 118°17'2 3.2
2018-Feb-12 23:30N 33°43' W 118°15'1 2.3
2018-Feb-12 23:00N 33°44' W 118°16'0 0.0
2018-Feb-12 22:30N 33°44' W 118°16'0 0.0
2018-Feb-12 22:00N 33°44' W 118°16'0 0.0
2018-Feb-12 21:30N 33°44' W 118°16'0 0.0
2018-Feb-12 21:00N 33°44' W 118°16'0 0.0
2018-Feb-12 20:30N 33°44' W 118°16'0 0.0
2018-Feb-12 20:00N 33°44' W 118°16'1 1.1
2018-Feb-12 19:30N 33°44' W 118°16'2 4.4
2018-Feb-12 19:00N 33°46' W 118°16'2 4.5
2018-Feb-12 18:30N 33°43' W 118°16'0 0.8
2018-Feb-12 18:00N 33°44' W 118°16'0 0.0
2018-Feb-12 17:26N 33°44' W 118°16'0 0.0
2018-Feb-12 16:59N 33°44' W 118°16'1 2.0
2018-Feb-12 16:30N 33°43' W 118°15'4 8.6
2018-Feb-12 16:00N 33°44' W 118°10'0 0.6
2018-Feb-12 15:30N 33°44' W 118°11'4 8.3
2018-Feb-12 15:00N 33°43' W 118°16'1 1.6
2018-Feb-12 14:30N 33°44' W 118°16'0 0.0
2018-Feb-12 14:00N 33°44' W 118°16'0 0.0
2018-Feb-12 13:30N 33°44' W 118°16'0 0.0
2018-Feb-12 13:00N 33°44' W 118°16'0 0.0
2018-Feb-12 12:30N 33°44' W 118°16'0 0.0
2018-Feb-12 12:00N 33°44' W 118°16'0 0.0
2018-Feb-12 11:29N 33°44' W 118°16'0 0.0
2018-Feb-12 11:00N 33°44' W 118°16'1 1.0
2018-Feb-12 10:29N 33°44' W 118°16'2 3.2
2018-Feb-12 10:00N 33°45' W 118°16'0 0.0
2018-Feb-12 09:28N 33°45' W 118°16'0 0.0
2018-Feb-12 09:00N 33°45' W 118°16'0 0.0
2018-Feb-12 08:30N 33°45' W 118°16'1 2.9
2018-Feb-12 08:00N 33°44' W 118°16'1 1.0
2018-Feb-12 07:27N 33°44' W 118°16'0 0.0
2018-Feb-12 07:00N 33°44' W 118°16'0 0.0
2018-Feb-12 06:30N 33°44' W 118°16'0 0.0
2018-Feb-12 06:00N 33°44' W 118°16'0 0.0
2018-Feb-12 05:28N 33°44' W 118°16'0 0.0
2018-Feb-12 05:00N 33°44' W 118°16'0 0.0
2018-Feb-12 04:30N 33°44' W 118°16'0 0.0
2018-Feb-12 04:00N 33°44' W 118°16'0 0.4
2018-Feb-12 03:30N 33°44' W 118°16'1 1.3
2018-Feb-12 03:00N 33°44' W 118°15'1 2.2
2018-Feb-12 02:30N 33°43' W 118°16'1 1.7
2018-Feb-12 02:00N 33°44' W 118°16'0 0.0
2018-Feb-12 01:30N 33°44' W 118°16'0 0.0
2018-Feb-12 01:00N 33°44' W 118°16'0 0.2
2018-Feb-12 00:30N 33°44' W 118°16'2 5.0
2018-Feb-12 00:00N 33°45' W 118°13'1 2.2
2018-Feb-11 23:30N 33°46' W 118°13'0 0.9
2018-Feb-11 23:01N 33°46' W 118°13'2 4.5
2018-Feb-11 22:30N 33°44' W 118°12'0 0.6
2018-Feb-11 22:00N 33°44' W 118°12'2 3.0
2018-Feb-11 21:30N 33°43' W 118°13'2 4.0
2018-Feb-11 21:00N 33°44' W 118°16'0 0.0
2018-Feb-11 20:30N 33°44' W 118°16'0 0.0
2018-Feb-11 20:00N 33°44' W 118°16'0 0.0
2018-Feb-11 19:30N 33°44' W 118°16'0 0.0
2018-Feb-11 19:00N 33°44' W 118°16'0 0.0
2018-Feb-11 18:30N 33°44' W 118°16'0 0.3
2018-Feb-11 18:00N 33°44' W 118°16'0 0.9
2018-Feb-11 17:30N 33°44' W 118°16'2 4.4
2018-Feb-11 17:00N 33°46' W 118°16'0 0.5
2018-Feb-11 16:30N 33°46' W 118°16'0 0.0
2018-Feb-11 16:00N 33°46' W 118°16'0 0.0
2018-Feb-11 15:30N 33°46' W 118°16'0 0.0
2018-Feb-11 15:00N 33°46' W 118°16'0 0.0
2018-Feb-11 14:30N 33°46' W 118°16'2 3.2
2018-Feb-11 14:00N 33°44' W 118°17'1 2.7
2018-Feb-11 13:30N 33°46' W 118°17'0 0.0
2018-Feb-11 13:00N 33°46' W 118°17'2 4.1
2018-Feb-11 12:30N 33°46' W 118°14'1 2.2
2018-Feb-11 12:00N 33°45' W 118°13'0 0.1
2018-Feb-11 11:28N 33°45' W 118°13'0 0.0
2018-Feb-11 10:59N 33°45' W 118°13'0 0.0
2018-Feb-11 10:29N 33°45' W 118°13'0 0.0
2018-Feb-11 10:00N 33°45' W 118°13'0 0.0
2018-Feb-11 09:29N 33°45' W 118°13'0 0.0
2018-Feb-11 09:00N 33°45' W 118°13'0 0.0
2018-Feb-11 08:28N 33°45' W 118°13'3 5.9
2018-Feb-11 08:00N 33°43' W 118°14'1 2.7
2018-Feb-11 07:29N 33°44' W 118°16'0 0.2
2018-Feb-11 07:00N 33°44' W 118°16'2 4.3
2018-Feb-11 06:30N 33°46' W 118°16'1 1.2
2018-Feb-11 06:00N 33°45' W 118°16'3 5.3
2018-Feb-11 05:30N 33°43' W 118°15'2 4.9
2018-Feb-11 05:00N 33°45' W 118°14'0 0.0
2018-Feb-11 04:30N 33°45' W 118°14'2 4.8
2018-Feb-11 04:00N 33°43' W 118°15'1 2.5
2018-Feb-11 03:30N 33°44' W 118°16'0 0.0
2018-Feb-11 03:00N 33°44' W 118°16'0 0.0
2018-Feb-11 02:30N 33°44' W 118°16'0 0.0
2018-Feb-11 02:00N 33°44' W 118°16'0 0.0
2018-Feb-11 01:30N 33°44' W 118°16'0 0.0
2018-Feb-11 01:00N 33°44' W 118°16'0 0.0
2018-Feb-11 00:30N 33°44' W 118°16'0 0.0
2018-Feb-11 00:00N 33°44' W 118°16'0 0.2
2018-Feb-10 23:30N 33°44' W 118°16'3 5.6
2018-Feb-10 23:00N 33°44' W 118°12'2 3.7
2018-Feb-10 22:30N 33°45' W 118°11'2 3.2
2018-Feb-10 22:00N 33°44' W 118°09'  
Track history (hours):
 
Tides and Currents Weather Stations Pressure Air Temp Water Temp Dewpoint Dewpoint Depression Visibility Wind Speed Wind Dir Waves Ship Positions

Millenium Maverick

Last reported at 2018-Feb-20 21:31 UTC. Time now 2018-Feb-20 21:38 UTC.
Position N 33°43' W 118°15'.

Length 29 m; draft 5.5 m.

Type: Towing. MMSI: 366998840.

Date/timePositionNaut miles runAvg speedWind from/ knotsBaromVisibWave heightAir tempDewpointWater temp
2018-Feb-20 21:31N 33°43' W 118°15'1 2.1
2018-Feb-20 21:00N 33°44' W 118°16'0 0.1
2018-Feb-20 20:30N 33°44' W 118°16'0 0.0
2018-Feb-20 20:00N 33°44' W 118°16'0 0.0
2018-Feb-20 19:30N 33°44' W 118°16'0 0.0
2018-Feb-20 19:00N 33°44' W 118°16'0 0.0
2018-Feb-20 18:31N 33°44' W 118°16'0 0.0
2018-Feb-20 18:01N 33°44' W 118°16'0 0.6
2018-Feb-20 17:30N 33°44' W 118°16'2 3.7
2018-Feb-20 17:01N 33°45' W 118°16'0 0.2
2018-Feb-20 16:30N 33°45' W 118°16'0 0.9
2018-Feb-20 16:00N 33°46' W 118°15'2 3.7
2018-Feb-20 15:30N 33°46' W 118°13'2 4.0
2018-Feb-20 15:00N 33°45' W 118°12'1 1.0
2018-Feb-20 14:30N 33°45' W 118°12'0 0.0
2018-Feb-20 13:57N 33°45' W 118°12'0 0.0
2018-Feb-20 13:19N 33°45' W 118°12'1 4.6
2018-Feb-20 13:00N 33°45' W 118°14'0 0.4
2018-Feb-20 12:30N 33°45' W 118°14'1 3.0
2018-Feb-20 12:00N 33°44' W 118°14'2 3.6
2018-Feb-20 11:31N 33°44' W 118°16'1 2.2
2018-Feb-20 11:01N 33°45' W 118°16'0 0.0
2018-Feb-20 10:31N 33°45' W 118°16'0 0.0
2018-Feb-20 10:00N 33°45' W 118°16'0 0.0
2018-Feb-20 09:30N 33°45' W 118°16'0 0.0
2018-Feb-20 08:59N 33°45' W 118°16'1 2.8
2018-Feb-20 08:30N 33°43' W 118°16'1 1.2
2018-Feb-20 08:00N 33°44' W 118°16'0 0.0
2018-Feb-20 07:31N 33°44' W 118°16'0 0.0
2018-Feb-20 06:59N 33°44' W 118°16'0 0.0
2018-Feb-20 06:30N 33°44' W 118°16'0 0.0
2018-Feb-20 06:00N 33°44' W 118°16'2 3.1
2018-Feb-20 05:31N 33°43' W 118°14'3 5.8
2018-Feb-20 05:00N 33°46' W 118°13'0 1.0
2018-Feb-20 04:30N 33°46' W 118°13'0 0.1
2018-Feb-20 04:00N 33°46' W 118°13'0 0.2
2018-Feb-20 03:29N 33°46' W 118°13'1 2.2
2018-Feb-20 02:58N 33°45' W 118°13'1 1.1
2018-Feb-20 02:30N 33°46' W 118°13'1 1.5
2018-Feb-20 02:00N 33°45' W 118°13'0 0.0
2018-Feb-20 01:30N 33°45' W 118°13'0 0.5
2018-Feb-20 01:00N 33°45' W 118°13'1 2.8
2018-Feb-20 00:30N 33°44' W 118°11'1 1.2
2018-Feb-20 00:01N 33°44' W 118°11'1 1.9
2018-Feb-19 23:31N 33°44' W 118°11'1 1.8
2018-Feb-19 23:01N 33°44' W 118°12'1 1.2
2018-Feb-19 22:30N 33°45' W 118°12'1 2.5
2018-Feb-19 22:00N 33°43' W 118°11'1 1.2
2018-Feb-19 21:31N 33°44' W 118°12'3 6.6
2018-Feb-19 21:00N 33°43' W 118°16'0 0.9
2018-Feb-19 20:31N 33°44' W 118°16'0 0.0
2018-Feb-19 20:00N 33°44' W 118°16'0 0.0
2018-Feb-19 19:30N 33°44' W 118°16'1 2.6
2018-Feb-19 19:00N 33°43' W 118°15'2 3.2
2018-Feb-19 18:30N 33°43' W 118°13'0 0.1
2018-Feb-19 18:01N 33°43' W 118°13'1 2.4
2018-Feb-19 17:31N 33°45' W 118°12'0 0.8
2018-Feb-19 17:00N 33°45' W 118°13'0 0.0
2018-Feb-19 16:30N 33°45' W 118°13'0 0.0
2018-Feb-19 16:01N 33°45' W 118°13'0 0.0
2018-Feb-19 15:31N 33°45' W 118°13'1 1.1
2018-Feb-19 15:01N 33°44' W 118°12'2 4.4
2018-Feb-19 14:29N 33°43' W 118°14'1 3.0
2018-Feb-19 14:00N 33°43' W 118°16'3 5.5
2018-Feb-19 13:30N 33°46' W 118°17'0 0.0
2018-Feb-19 13:00N 33°46' W 118°17'1 1.7
2018-Feb-19 12:30N 33°45' W 118°16'0 0.0
2018-Feb-19 12:00N 33°45' W 118°16'1 1.6
2018-Feb-19 11:30N 33°44' W 118°17'2 4.4
2018-Feb-19 11:00N 33°43' W 118°15'1 2.6
2018-Feb-19 10:30N 33°44' W 118°16'0 0.0
2018-Feb-19 10:00N 33°44' W 118°16'0 0.0
2018-Feb-19 09:31N 33°44' W 118°16'0 0.0
2018-Feb-19 09:00N 33°44' W 118°16'0 0.0
2018-Feb-19 08:30N 33°44' W 118°16'0 0.0
2018-Feb-19 08:00N 33°44' W 118°16'0 0.0
2018-Feb-19 07:30N 33°44' W 118°16'0 0.0
2018-Feb-19 07:01N 33°44' W 118°16'3 6.0
2018-Feb-19 06:26N 33°44' W 118°12'1 3.1
2018-Feb-19 06:00N 33°44' W 118°10'1 1.9
2018-Feb-19 05:30N 33°44' W 118°11'2 3.0
2018-Feb-19 04:59N 33°45' W 118°13'1 1.8
2018-Feb-19 04:30N 33°46' W 118°13'0 0.0
2018-Feb-19 03:59N 33°46' W 118°13'0 0.1
2018-Feb-19 03:30N 33°46' W 118°13'0 0.0
2018-Feb-19 03:00N 33°46' W 118°13'1 1.2
2018-Feb-19 02:27N 33°45' W 118°12'1 1.2
2018-Feb-19 02:00N 33°44' W 118°12'1 1.5
2018-Feb-19 01:31N 33°44' W 118°12'0 0.0
2018-Feb-19 01:00N 33°44' W 118°12'0 0.0
2018-Feb-19 00:31N 33°44' W 118°12'1 2.4
2018-Feb-19 00:00N 33°45' W 118°12'1 1.0
2018-Feb-18 23:31N 33°44' W 118°12'2 4.2
2018-Feb-18 23:01N 33°44' W 118°10'0 0.6
2018-Feb-18 22:30N 33°44' W 118°10'2 3.7
2018-Feb-18 22:01N 33°44' W 118°12'1 1.3
2018-Feb-18 21:30N 33°45' W 118°12'2 3.0
2018-Feb-18 21:00N 33°44' W 118°13'2 3.8
2018-Feb-18 20:30N 33°44' W 118°16'0 0.0
2018-Feb-18 20:01N 33°44' W 118°16'0 0.0
2018-Feb-18 19:29N 33°44' W 118°16'0 0.0
2018-Feb-18 19:00N 33°44' W 118°16'0 0.0
2018-Feb-18 18:31N 33°44' W 118°16'0 0.0
2018-Feb-18 18:01N 33°44' W 118°16'3 5.5
2018-Feb-18 17:30N 33°44' W 118°12'1 1.1
2018-Feb-18 17:01N 33°43' W 118°13'3 5.8
2018-Feb-18 16:31N 33°44' W 118°16'2 4.4
2018-Feb-18 16:00N 33°46' W 118°16'0 0.5
2018-Feb-18 15:30N 33°46' W 118°16'0 0.0
2018-Feb-18 15:01N 33°46' W 118°16'0 0.0
2018-Feb-18 14:30N 33°46' W 118°16'0 0.0
2018-Feb-18 14:01N 33°46' W 118°16'1 1.7
2018-Feb-18 13:31N 33°46' W 118°17'1 1.2
2018-Feb-18 13:01N 33°45' W 118°16'3 5.0
2018-Feb-18 12:30N 33°43' W 118°15'0 0.9
2018-Feb-18 12:00N 33°43' W 118°15'1 2.5
2018-Feb-18 11:31N 33°44' W 118°15'0 0.1
2018-Feb-18 11:00N 33°44' W 118°15'0 0.9
2018-Feb-18 10:30N 33°44' W 118°16'0 0.0
2018-Feb-18 09:59N 33°44' W 118°16'0 0.0
2018-Feb-18 09:29N 33°44' W 118°16'0 0.0
2018-Feb-18 08:59N 33°44' W 118°16'0 0.0
2018-Feb-18 08:31N 33°44' W 118°16'0 0.0
2018-Feb-18 07:59N 33°44' W 118°16'0 0.0
2018-Feb-18 07:30N 33°44' W 118°16'0 0.0
2018-Feb-18 07:01N 33°44' W 118°16'0 0.0
2018-Feb-18 06:30N 33°44' W 118°16'1 1.2
2018-Feb-18 06:00N 33°44' W 118°16'2 4.0
2018-Feb-18 05:31N 33°46' W 118°16'3 5.8
2018-Feb-18 05:00N 33°43' W 118°16'2 4.9
2018-Feb-18 04:30N 33°44' W 118°13'0 0.1
2018-Feb-18 03:37N 33°44' W 118°13'1 8.2
2018-Feb-18 03:30N 33°43' W 118°14'3 5.3
2018-Feb-18 03:00N 33°45' W 118°17'1 2.3
2018-Feb-18 02:30N 33°46' W 118°16'0 0.3
2018-Feb-18 02:01N 33°46' W 118°16'0 0.0
2018-Feb-18 01:31N 33°46' W 118°16'2 4.5
2018-Feb-18 01:01N 33°45' W 118°13'1 1.9
2018-Feb-18 00:30N 33°45' W 118°12'1 1.6
2018-Feb-18 00:00N 33°44' W 118°12'1 2.9
2018-Feb-17 23:31N 33°44' W 118°11'1 1.8
2018-Feb-17 23:01N 33°44' W 118°12'1 2.0
2018-Feb-17 22:31N 33°44' W 118°12'3 6.3
2018-Feb-17 22:01N 33°44' W 118°16'2 4.9
2018-Feb-17 21:30N 33°46' W 118°16'3 5.1
2018-Feb-17 21:00N 33°43' W 118°16'1 1.3
2018-Feb-17 20:30N 33°44' W 118°16'0 0.0
2018-Feb-17 20:00N 33°44' W 118°16'0 0.0
2018-Feb-17 19:31N 33°44' W 118°16'0 0.0
2018-Feb-17 19:01N 33°44' W 118°16'0 0.0
2018-Feb-17 18:30N 33°44' W 118°16'3 5.6
2018-Feb-17 18:00N 33°44' W 118°12'1 1.0
2018-Feb-17 17:30N 33°45' W 118°13'0 0.3
2018-Feb-17 17:00N 33°45' W 118°13'0 0.0
2018-Feb-17 16:30N 33°45' W 118°13'1 2.2
2018-Feb-17 16:01N 33°44' W 118°13'3 6.0
2018-Feb-17 15:30N 33°45' W 118°17'1 1.4
2018-Feb-17 15:00N 33°44' W 118°17'1 1.5
2018-Feb-17 14:30N 33°44' W 118°16'0 0.2
2018-Feb-17 14:00N 33°44' W 118°16'0 0.0
2018-Feb-17 13:30N 33°44' W 118°16'1 2.9
2018-Feb-17 13:00N 33°43' W 118°14'3 5.3
2018-Feb-17 12:30N 33°46' W 118°13'0 1.0
2018-Feb-17 12:00N 33°46' W 118°13'1 0.6
2018-Feb-17 10:49N 33°45' W 118°13'0 0.0
2018-Feb-17 10:25N 33°45' W 118°13'0 0.0
2018-Feb-17 09:59N 33°45' W 118°13'0 0.0
2018-Feb-17 09:14N 33°45' W 118°13'0 0.0
2018-Feb-17 08:59N 33°45' W 118°13'1 3.1
2018-Feb-17 08:31N 33°44' W 118°13'2 3.6
2018-Feb-17 07:58N 33°44' W 118°16'0 0.0
2018-Feb-17 07:30N 33°44' W 118°16'0 0.0
2018-Feb-17 06:59N 33°44' W 118°16'0 0.0
2018-Feb-17 06:29N 33°44' W 118°16'0 0.0
2018-Feb-17 05:59N 33°44' W 118°16'0 0.0
2018-Feb-17 05:30N 33°44' W 118°16'0 0.0
2018-Feb-17 05:00N 33°44' W 118°16'0 0.0
2018-Feb-17 04:30N 33°44' W 118°16'0 0.0
2018-Feb-17 04:00N 33°44' W 118°16'0 0.0
2018-Feb-17 03:31N 33°44' W 118°16'0 0.0
2018-Feb-17 03:00N 33°44' W 118°16'0 0.0
2018-Feb-17 02:30N 33°44' W 118°16'0 0.0
2018-Feb-17 02:00N 33°44' W 118°16'1 1.8
2018-Feb-17 01:30N 33°43' W 118°16'3 6.5
2018-Feb-17 01:01N 33°45' W 118°13'0 0.8
2018-Feb-17 00:30N 33°45' W 118°13'0 0.0
2018-Feb-17 00:01N 33°45' W 118°13'0 0.0
2018-Feb-16 23:31N 33°45' W 118°13'0 0.0
2018-Feb-16 23:01N 33°45' W 118°13'0 0.0
2018-Feb-16 22:31N 33°45' W 118°13'0 0.8
2018-Feb-16 21:59N 33°45' W 118°13'4 8.1
2018-Feb-16 21:30N 33°41' W 118°13'2 4.0
2018-Feb-16 21:01N 33°42' W 118°15'2 4.3
2018-Feb-16 20:30N 33°44' W 118°16'0 0.0
2018-Feb-16 20:01N 33°44' W 118°16'0 0.0
2018-Feb-16 19:30N 33°44' W 118°16'0 0.0
2018-Feb-16 19:00N 33°44' W 118°16'0 0.0
2018-Feb-16 18:30N 33°44' W 118°16'0 0.0
2018-Feb-16 18:01N 33°44' W 118°16'0 0.0
2018-Feb-16 17:30N 33°44' W 118°16'0 0.0
2018-Feb-16 17:00N 33°44' W 118°16'2 3.7
2018-Feb-16 16:31N 33°44' W 118°13'1 2.2
2018-Feb-16 16:01N 33°45' W 118°13'0 0.0
2018-Feb-16 15:30N 33°45' W 118°13'0 0.0
2018-Feb-16 15:00N 33°45' W 118°13'1 1.1
2018-Feb-16 14:30N 33°46' W 118°13'0 0.2
2018-Feb-16 14:01N 33°45' W 118°13'3 4.2
2018-Feb-16 13:23N 33°43' W 118°11'2 4.0
2018-Feb-16 13:01N 33°44' W 118°12'1 1.7
2018-Feb-16 12:31N 33°45' W 118°13'0 0.0
2018-Feb-16 12:01N 33°45' W 118°13'0 0.0
2018-Feb-16 11:30N 33°45' W 118°13'1 1.1
2018-Feb-16 11:00N 33°46' W 118°13'1 1.3
2018-Feb-16 10:30N 33°46' W 118°13'1 1.4
2018-Feb-16 09:59N 33°45' W 118°13'3 5.5
2018-Feb-16 09:30N 33°43' W 118°11'1 1.4
2018-Feb-16 08:59N 33°44' W 118°12'3 6.2
2018-Feb-16 08:30N 33°43' W 118°15'1 1.8
2018-Feb-16 07:58N 33°44' W 118°16'0 0.0
2018-Feb-16 07:29N 33°44' W 118°16'0 0.0
2018-Feb-16 06:59N 33°44' W 118°16'0 0.0
2018-Feb-16 06:30N 33°44' W 118°16'0 0.0
2018-Feb-16 05:59N 33°44' W 118°16'3 6.1
2018-Feb-16 05:30N 33°44' W 118°12'1 2.5
2018-Feb-16 05:00N 33°44' W 118°11'1 2.1
2018-Feb-16 04:30N 33°44' W 118°12'3 6.3
2018-Feb-16 04:00N 33°43' W 118°16'1 1.8
2018-Feb-16 03:31N 33°44' W 118°16'1 1.3
2018-Feb-16 03:00N 33°43' W 118°17'1 1.4
2018-Feb-16 02:30N 33°44' W 118°16'0 0.2
2018-Feb-16 02:00N 33°44' W 118°16'0 0.0
2018-Feb-16 01:30N 33°44' W 118°16'0 0.0
2018-Feb-16 01:00N 33°44' W 118°16'0 0.0
2018-Feb-16 00:31N 33°44' W 118°16'0 0.0
2018-Feb-16 00:01N 33°44' W 118°16'0 0.0
2018-Feb-15 23:30N 33°44' W 118°16'0 0.0
2018-Feb-15 22:59N 33°44' W 118°16'0 0.0
2018-Feb-15 22:30N 33°44' W 118°16'0 0.0
2018-Feb-15 22:01N 33°44' W 118°16'0 0.0
2018-Feb-15 21:31N 33°44' W 118°16'0 0.0
2018-Feb-15 21:01N 33°44' W 118°16'0 0.0
2018-Feb-15 20:31N 33°44' W 118°16'0 0.0
2018-Feb-15 20:00N 33°44' W 118°16'0 0.0
2018-Feb-15 19:30N 33°44' W 118°16'0 0.0
2018-Feb-15 19:00N 33°44' W 118°16'0 0.0
2018-Feb-15 18:31N 33°44' W 118°16'0 0.0
2018-Feb-15 17:58N 33°44' W 118°16'0 0.0
2018-Feb-15 17:30N 33°44' W 118°16'0 0.0
2018-Feb-15 17:00N 33°44' W 118°16'0 0.0
2018-Feb-15 16:27N 33°44' W 118°16'0 0.0
2018-Feb-15 16:01N 33°44' W 118°16'2 3.5
2018-Feb-15 15:31N 33°43' W 118°14'2 3.9
2018-Feb-15 15:00N 33°45' W 118°12'1 1.2
2018-Feb-15 14:30N 33°45' W 118°13'0 0.2
2018-Feb-15 13:59N 33°45' W 118°13'2 3.7
2018-Feb-15 13:23N 33°44' W 118°11'0 0.1
2018-Feb-15 13:01N 33°44' W 118°12'2 3.7
2018-Feb-15 12:30N 33°45' W 118°13'0 0.0
2018-Feb-15 12:00N 33°45' W 118°13'0 0.0
2018-Feb-15 11:30N 33°45' W 118°13'0 0.0
2018-Feb-15 11:00N 33°45' W 118°13'0 0.0
2018-Feb-15 10:30N 33°45' W 118°13'1 2.8
2018-Feb-15 10:00N 33°46' W 118°14'0 0.1
2018-Feb-15 09:30N 33°46' W 118°14'3 5.1
2018-Feb-15 08:59N 33°43' W 118°14'2 3.5
2018-Feb-15 08:30N 33°44' W 118°16'0 0.1
2018-Feb-15 08:00N 33°44' W 118°16'0 0.0
2018-Feb-15 07:29N 33°44' W 118°16'0 0.0
2018-Feb-15 06:59N 33°44' W 118°16'0 0.0
2018-Feb-15 06:30N 33°44' W 118°16'0 0.0
2018-Feb-15 06:00N 33°44' W 118°16'0 0.0
2018-Feb-15 05:29N 33°44' W 118°16'0 0.0
2018-Feb-15 05:00N 33°44' W 118°16'0 0.5
2018-Feb-15 04:29N 33°44' W 118°16'0 0.1
2018-Feb-15 04:00N 33°44' W 118°16'0 0.5
2018-Feb-15 03:30N 33°44' W 118°16'0 0.1
2018-Feb-15 03:00N 33°44' W 118°15'0 0.3
2018-Feb-15 02:30N 33°44' W 118°16'0 0.0
2018-Feb-15 02:00N 33°44' W 118°16'0 0.0
2018-Feb-15 01:30N 33°44' W 118°16'0 0.0
2018-Feb-15 01:00N 33°44' W 118°16'0 0.0
2018-Feb-15 00:30N 33°44' W 118°16'0 0.0
2018-Feb-15 00:00N 33°44' W 118°16'0 0.0
2018-Feb-14 23:30N 33°44' W 118°16'0 0.9
2018-Feb-14 23:00N 33°44' W 118°15'1 1.3
2018-Feb-14 22:30N 33°44' W 118°16'1 2.2
2018-Feb-14 21:59N 33°43' W 118°15'1 2.8
2018-Feb-14 21:30N 33°44' W 118°16'0 0.0
2018-Feb-14 20:59N 33°44' W 118°16'0 0.0
2018-Feb-14 20:30N 33°44' W 118°16'0 0.0
2018-Feb-14 20:00N 33°44' W 118°16'0 0.0
2018-Feb-14 19:30N 33°44' W 118°16'0 0.0
2018-Feb-14 18:59N 33°44' W 118°16'0 0.0
2018-Feb-14 18:30N 33°44' W 118°16'0 0.0
2018-Feb-14 17:57N 33°44' W 118°16'0 0.0
2018-Feb-14 17:30N 33°44' W 118°16'0 0.0
2018-Feb-14 17:00N 33°44' W 118°16'0 0.0
2018-Feb-14 16:30N 33°44' W 118°16'0 0.0
2018-Feb-14 16:00N 33°44' W 118°16'0 0.0
2018-Feb-14 15:30N 33°44' W 118°16'0 0.0
2018-Feb-14 14:59N 33°44' W 118°16'0 0.0
2018-Feb-14 14:30N 33°44' W 118°16'0 0.0
2018-Feb-14 14:00N 33°44' W 118°16'0 0.0
2018-Feb-14 13:30N 33°44' W 118°16'2 3.6
2018-Feb-14 12:58N 33°44' W 118°13'2 4.3
2018-Feb-14 12:30N 33°46' W 118°13'0 0.4
2018-Feb-14 12:00N 33°46' W 118°13'0 0.8
2018-Feb-14 11:30N 33°46' W 118°13'3 6.3
2018-Feb-14 11:00N 33°43' W 118°16'0 1.0
2018-Feb-14 10:31N 33°44' W 118°16'0 0.0
2018-Feb-14 09:59N 33°44' W 118°16'0 0.0
2018-Feb-14 09:30N 33°44' W 118°16'0 0.0
2018-Feb-14 08:59N 33°44' W 118°16'0 0.0
2018-Feb-14 08:28N 33°44' W 118°16'0 0.0
2018-Feb-14 08:00N 33°44' W 118°16'0 0.0
2018-Feb-14 07:30N 33°44' W 118°16'0 0.0
2018-Feb-14 06:56N 33°44' W 118°16'0 0.0
2018-Feb-14 06:30N 33°44' W 118°16'0 0.2
2018-Feb-14 06:00N 33°44' W 118°16'2 3.9
2018-Feb-14 05:27N 33°44' W 118°13'1 2.9
2018-Feb-14 05:00N 33°45' W 118°12'0 0.8
2018-Feb-14 04:30N 33°45' W 118°13'0 0.0
2018-Feb-14 04:00N 33°45' W 118°13'0 0.0
2018-Feb-14 03:30N 33°45' W 118°13'1 1.7
2018-Feb-14 03:00N 33°46' W 118°13'0 0.9
2018-Feb-14 02:30N 33°46' W 118°13'1 2.4
2018-Feb-14 01:59N 33°45' W 118°13'2 5.1
2018-Feb-14 01:30N 33°44' W 118°16'0 0.0
2018-Feb-14 01:00N 33°44' W 118°16'0 0.0
2018-Feb-14 00:30N 33°44' W 118°16'1 1.3
2018-Feb-14 00:00N 33°44' W 118°15'1 1.4
2018-Feb-13 23:30N 33°44' W 118°16'1 2.5
2018-Feb-13 23:00N 33°43' W 118°15'1 2.7
2018-Feb-13 22:30N 33°44' W 118°16'0 0.0
2018-Feb-13 22:00N 33°44' W 118°16'0 0.0
2018-Feb-13 21:30N 33°44' W 118°16'0 0.0
2018-Feb-13 21:00N 33°44' W 118°16'0 0.0
2018-Feb-13 20:30N 33°44' W 118°16'0 0.0
2018-Feb-13 20:00N 33°44' W 118°16'0 0.0
2018-Feb-13 19:30N 33°44' W 118°16'0 0.0
2018-Feb-13 19:00N 33°44' W 118°16'0 0.0
2018-Feb-13 18:30N 33°44' W 118°16'0 0.0
2018-Feb-13 18:00N 33°44' W 118°16'1 2.0
2018-Feb-13 17:30N 33°44' W 118°17'1 1.8
2018-Feb-13 17:00N 33°45' W 118°17'0 0.1
2018-Feb-13 16:29N 33°45' W 118°17'0 0.0
2018-Feb-13 16:00N 33°45' W 118°17'0 0.0
2018-Feb-13 15:30N 33°45' W 118°17'1 2.3
2018-Feb-13 15:00N 33°44' W 118°17'3 5.8
2018-Feb-13 14:30N 33°45' W 118°13'1 1.9
2018-Feb-13 14:00N 33°45' W 118°14'2 4.1
2018-Feb-13 13:31N 33°45' W 118°16'0 0.0
2018-Feb-13 13:00N 33°45' W 118°16'2 4.0
2018-Feb-13 12:30N 33°43' W 118°16'1 1.9
2018-Feb-13 12:00N 33°43' W 118°15'1 1.6
2018-Feb-13 11:30N 33°43' W 118°16'4 8.0
2018-Feb-13 11:00N 33°44' W 118°11'1 1.8
2018-Feb-13 10:30N 33°44' W 118°10'3 5.7
2018-Feb-13 10:00N 33°43' W 118°13'2 4.3
2018-Feb-13 09:30N 33°44' W 118°16'0 0.0
2018-Feb-13 09:00N 33°44' W 118°16'0 0.0
2018-Feb-13 08:30N 33°44' W 118°16'0 0.0
2018-Feb-13 08:00N 33°44' W 118°16'0 0.0
2018-Feb-13 07:30N 33°44' W 118°16'0 0.0
2018-Feb-13 07:00N 33°44' W 118°16'0 0.0
2018-Feb-13 06:31N 33°44' W 118°16'0 0.0
2018-Feb-13 06:00N 33°44' W 118°16'0 0.0
2018-Feb-13 05:30N 33°44' W 118°16'0 0.2
2018-Feb-13 05:00N 33°44' W 118°16'3 5.7
2018-Feb-13 04:30N 33°44' W 118°12'1 1.8
2018-Feb-13 04:00N 33°44' W 118°12'2 3.3
2018-Feb-13 03:29N 33°44' W 118°10'2 3.9
2018-Feb-13 03:00N 33°44' W 118°12'2 4.9
2018-Feb-13 02:30N 33°45' W 118°14'0 0.1
2018-Feb-13 02:00N 33°45' W 118°14'1 1.8
2018-Feb-13 01:30N 33°46' W 118°15'2 3.2
2018-Feb-13 01:00N 33°46' W 118°17'0 0.4
2018-Feb-13 00:30N 33°45' W 118°17'1 2.8
2018-Feb-13 00:00N 33°44' W 118°17'2 3.2
2018-Feb-12 23:30N 33°43' W 118°15'1 2.3
2018-Feb-12 23:00N 33°44' W 118°16'0 0.0
2018-Feb-12 22:30N 33°44' W 118°16'0 0.0
2018-Feb-12 22:00N 33°44' W 118°16'0 0.0
2018-Feb-12 21:30N 33°44' W 118°16'0 0.0
2018-Feb-12 21:00N 33°44' W 118°16'0 0.0
2018-Feb-12 20:30N 33°44' W 118°16'0 0.0
2018-Feb-12 20:00N 33°44' W 118°16'1 1.1
2018-Feb-12 19:30N 33°44' W 118°16'2 4.4
2018-Feb-12 19:00N 33°46' W 118°16'2 4.5
2018-Feb-12 18:30N 33°43' W 118°16'0 0.8
2018-Feb-12 18:00N 33°44' W 118°16'0 0.0
2018-Feb-12 17:26N 33°44' W 118°16'0 0.0
2018-Feb-12 16:59N 33°44' W 118°16'1 2.0
2018-Feb-12 16:30N 33°43' W 118°15'4 8.6
2018-Feb-12 16:00N 33°44' W 118°10'0 0.6
2018-Feb-12 15:30N 33°44' W 118°11'4 8.3
2018-Feb-12 15:00N 33°43' W 118°16'1 1.6
2018-Feb-12 14:30N 33°44' W 118°16'0 0.0
2018-Feb-12 14:00N 33°44' W 118°16'0 0.0
2018-Feb-12 13:30N 33°44' W 118°16'0 0.0
2018-Feb-12 13:00N 33°44' W 118°16'0 0.0
2018-Feb-12 12:30N 33°44' W 118°16'0 0.0
2018-Feb-12 12:00N 33°44' W 118°16'0 0.0
2018-Feb-12 11:29N 33°44' W 118°16'0 0.0
2018-Feb-12 11:00N 33°44' W 118°16'1 1.0
2018-Feb-12 10:29N 33°44' W 118°16'2 3.2
2018-Feb-12 10:00N 33°45' W 118°16'0 0.0
2018-Feb-12 09:28N 33°45' W 118°16'0 0.0
2018-Feb-12 09:00N 33°45' W 118°16'0 0.0
2018-Feb-12 08:30N 33°45' W 118°16'1 2.9
2018-Feb-12 08:00N 33°44' W 118°16'1 1.0
2018-Feb-12 07:27N 33°44' W 118°16'0 0.0
2018-Feb-12 07:00N 33°44' W 118°16'0 0.0
2018-Feb-12 06:30N 33°44' W 118°16'0 0.0
2018-Feb-12 06:00N 33°44' W 118°16'0 0.0
2018-Feb-12 05:28N 33°44' W 118°16'0 0.0
2018-Feb-12 05:00N 33°44' W 118°16'0 0.0
2018-Feb-12 04:30N 33°44' W 118°16'0 0.0
2018-Feb-12 04:00N 33°44' W 118°16'0 0.4
2018-Feb-12 03:30N 33°44' W 118°16'1 1.3
2018-Feb-12 03:00N 33°44' W 118°15'1 2.2
2018-Feb-12 02:30N 33°43' W 118°16'1 1.7
2018-Feb-12 02:00N 33°44' W 118°16'0 0.0
2018-Feb-12 01:30N 33°44' W 118°16'0 0.0
2018-Feb-12 01:00N 33°44' W 118°16'0 0.2
2018-Feb-12 00:30N 33°44' W 118°16'2 5.0
2018-Feb-12 00:00N 33°45' W 118°13'1 2.2
2018-Feb-11 23:30N 33°46' W 118°13'0 0.9
2018-Feb-11 23:01N 33°46' W 118°13'2 4.5
2018-Feb-11 22:30N 33°44' W 118°12'0 0.6
2018-Feb-11 22:00N 33°44' W 118°12'2 3.0
2018-Feb-11 21:30N 33°43' W 118°13'2 4.0
2018-Feb-11 21:00N 33°44' W 118°16'0 0.0
2018-Feb-11 20:30N 33°44' W 118°16'0 0.0
2018-Feb-11 20:00N 33°44' W 118°16'0 0.0
2018-Feb-11 19:30N 33°44' W 118°16'0 0.0
2018-Feb-11 19:00N 33°44' W 118°16'0 0.0
2018-Feb-11 18:30N 33°44' W 118°16'0 0.3
2018-Feb-11 18:00N 33°44' W 118°16'0 0.9
2018-Feb-11 17:30N 33°44' W 118°16'2 4.4
2018-Feb-11 17:00N 33°46' W 118°16'0 0.5
2018-Feb-11 16:30N 33°46' W 118°16'0 0.0
2018-Feb-11 16:00N 33°46' W 118°16'0 0.0
2018-Feb-11 15:30N 33°46' W 118°16'0 0.0
2018-Feb-11 15:00N 33°46' W 118°16'0 0.0
2018-Feb-11 14:30N 33°46' W 118°16'2 3.2
2018-Feb-11 14:00N 33°44' W 118°17'1 2.7
2018-Feb-11 13:30N 33°46' W 118°17'0 0.0
2018-Feb-11 13:00N 33°46' W 118°17'2 4.1
2018-Feb-11 12:30N 33°46' W 118°14'1 2.2
2018-Feb-11 12:00N 33°45' W 118°13'0 0.1
2018-Feb-11 11:28N 33°45' W 118°13'0 0.0
2018-Feb-11 10:59N 33°45' W 118°13'0 0.0
2018-Feb-11 10:29N 33°45' W 118°13'0 0.0
2018-Feb-11 10:00N 33°45' W 118°13'0 0.0
2018-Feb-11 09:29N 33°45' W 118°13'0 0.0
2018-Feb-11 09:00N 33°45' W 118°13'0 0.0
2018-Feb-11 08:28N 33°45' W 118°13'3 5.9
2018-Feb-11 08:00N 33°43' W 118°14'1 2.7
2018-Feb-11 07:29N 33°44' W 118°16'0 0.2
2018-Feb-11 07:00N 33°44' W 118°16'2 4.3
2018-Feb-11 06:30N 33°46' W 118°16'1 1.2
2018-Feb-11 06:00N 33°45' W 118°16'3 5.3
2018-Feb-11 05:30N 33°43' W 118°15'2 4.9
2018-Feb-11 05:00N 33°45' W 118°14'0 0.0
2018-Feb-11 04:30N 33°45' W 118°14'2 4.8
2018-Feb-11 04:00N 33°43' W 118°15'1 2.5
2018-Feb-11 03:30N 33°44' W 118°16'0 0.0
2018-Feb-11 03:00N 33°44' W 118°16'0 0.0
2018-Feb-11 02:30N 33°44' W 118°16'0 0.0
2018-Feb-11 02:00N 33°44' W 118°16'0 0.0
2018-Feb-11 01:30N 33°44' W 118°16'0 0.0
2018-Feb-11 01:00N 33°44' W 118°16'0 0.0
2018-Feb-11 00:30N 33°44' W 118°16'0 0.0
2018-Feb-11 00:00N 33°44' W 118°16'0 0.2
2018-Feb-10 23:30N 33°44' W 118°16'3 5.6
2018-Feb-10 23:00N 33°44' W 118°12'2 3.7
2018-Feb-10 22:30N 33°45' W 118°11'2 3.2
2018-Feb-10 22:00N 33°44' W 118°09'  

Dump ship's entire track history